Latest Weather Observations for Nullarbor

IDS60801

Issued at 5:01 pm CST Tuesday 20 April 2021 (issued every 10 minutes, with the page automatically refreshed every 10 minutes)

About weather observations | Map of weather stations | Latest weather observations for SA | Other Formats
Station Details ID: 018106 Name: NULLARBOR Lat: -31.45 Lon: 130.90 Height: 64.0 m
Data from the previous 72 hours. | See also: Recent months at Nullarbor
Date/Time
CST
Temp
°C
App
Temp
°C
Dew
Point
°C
Rel
Hum
%
Delta-T
°C
Wind Press
QNH
hPa
Press
MSL
hPa
Rain since
9am
mm
Dir  Spd
km/h
Gust
km/h
Spd
kts
Gust
kts
20/05:00pm 20.3 17.1 14.2 68 3.5 S 24 30 13 16 1018.8 1018.7 0.0
20/04:30pm 21.4 18.4 13.8 62 4.4 S 22 32 12 17 1018.8 1018.7 0.0
20/04:00pm 21.3 17.0 13.2 60 4.6 S 28 35 15 19 1018.5 1018.4 0.0
20/03:30pm 22.1 18.2 13.2 57 5.1 S 26 35 14 19 1018.4 1018.3 0.0
20/03:00pm 22.3 18.5 12.5 53 5.6 SSW 24 37 13 20 1018.3 1018.2 0.0
20/02:30pm 22.2 17.9 12.2 53 5.7 SSW 26 33 14 18 1018.4 1018.3 0.0
20/02:19pm 22.5 18.9 11.9 51 6.0 SSW 22 37 12 20 1018.4 1018.3 0.0
20/02:09pm 22.8 19.6 11.8 50 6.2 SW 20 32 11 17 1018.5 1018.4 0.0
20/02:00pm 22.3 19.0 11.7 51 6.0 SSW 20 33 11 18 1018.5 1018.4 0.0
20/01:30pm 23.3 20.6 11.7 48 6.5 SSW 17 28 9 15 1018.8 1018.7 0.0
20/01:00pm 23.0 19.8 10.1 44 7.1 SSW 17 26 9 14 1019.0 1018.9 0.0
20/12:30pm 22.5 19.0 8.6 41 7.4 SSW 17 28 9 15 1019.4 1019.3 0.0
20/12:00pm 23.0 20.4 9.4 42 7.3 SW 13 22 7 12 1019.7 1019.6 0.0
20/11:30am 21.8 18.0 7.6 40 7.4 SW 17 28 9 15 1019.9 1019.8 0.0
20/11:00am 21.2 18.0 8.5 44 6.7 SW 15 22 8 12 1020.1 1020.0 0.0
20/10:30am 20.6 18.1 6.5 40 7.1 WSW 9 15 5 8 1020.2 1020.1 0.0
20/10:00am 19.8 17.3 8.2 47 6.0 NW 11 15 6 8 1020.1 1020.0 0.0
20/09:30am 18.1 15.7 8.7 54 4.9 NW 11 17 6 9 1019.9 1019.8 0.0
20/09:00am 15.5 12.6 8.0 61 3.8 NW 13 15 7 8 1019.9 1019.8 0.0
20/08:30am 12.9 9.8 7.1 68 2.8 NW 13 15 7 8 1019.4 1019.3 0.0
20/08:00am 10.0 6.3 6.3 78 1.7 NNW 15 17 8 9 1018.9 1018.8 0.0
20/07:30am 7.5 3.7 5.8 89 0.8 NNW 15 17 8 9 1018.5 1018.4 0.0
20/07:00am 7.4 3.6 6.0 91 0.6 NNW 15 17 8 9 1018.2 1018.1 0.0
20/06:30am 7.6 3.9 6.4 92 0.5 NNW 15 15 8 8 1017.9 1017.8 0.0
20/06:00am 8.0 4.4 6.9 93 0.5 NNW 15 17 8 9 1017.5 1017.4 0.0
20/05:30am 8.4 5.1 8.0 97 0.2 N 15 19 8 10 1017.4 1017.3 0.0
20/05:00am 8.7 5.5 8.6 99 0.0 N 15 17 8 9 1017.2 1017.1 0.0
20/04:30am 8.2 4.9 8.1 99 0.0 N 15 19 8 10 1017.0 1016.9 0.0
20/04:00am 8.5 5.7 8.5 100 0.0 N 13 17 7 9 1017.1 1017.0 0.0
20/03:30am 8.2 5.3 8.2 100 0.0 N 13 15 7 8 1017.3 1017.2 0.0
20/03:00am 7.8 4.8 7.7 99 0.0 NNE 13 17 7 9 1017.4 1017.3 0.0
20/02:30am 7.4 4.3 7.3 99 0.0 N 13 17 7 9 1017.6 1017.5 0.0
20/02:00am 8.6 5.8 8.5 99 0.0 N 13 17 7 9 1017.7 1017.6 0.0
20/01:30am 9.6 7.8 9.5 99 0.0 NNE 9 11 5 6 1017.5 1017.4 0.0
20/01:00am 8.4 5.9 8.0 97 0.2 NNE 11 13 6 7 1017.5 1017.4 0.0
20/12:30am 8.8 6.9 7.7 93 0.5 E 7 7 4 4 1017.6 1017.5 0.0
20/12:00am 10.6 9.6 10.3 98 0.2 ESE 6 7 3 4 1017.6 1017.5 0.0
 
Date/Time
CST
Temp
°C
App
Temp
°C
Dew
Point
°C
Rel
Hum
%
Delta-T
°C
Wind Press
QNH
hPa
Press
MSL
hPa
Rain since
9am
mm
Dir  Spd
km/h
Gust
km/h
Spd
kts
Gust
kts
19/11:30pm 11.5 10.4 10.7 95 0.4 ESE 7 9 4 5 1017.7 1017.6 0.0
19/11:00pm 11.7 10.0 9.9 89 0.9 SE 9 9 5 5 1017.7 1017.6 0.0
19/10:30pm 11.3 9.6 8.5 83 1.4 ESE 7 9 4 5 1017.8 1017.7 0.0
19/10:00pm 12.5 9.9 9.3 81 1.6 SE 13 15 7 8 1017.8 1017.7 0.0
19/09:30pm 14.3 11.7 10.7 79 1.9 SSE 15 17 8 9 1017.7 1017.6 0.0
19/09:00pm 13.8 11.2 9.5 75 2.2 SSE 13 15 7 8 1017.6 1017.5 0.0
19/08:30pm 13.4 11.2 8.0 70 2.7 SE 9 11 5 6 1017.6 1017.5 0.0
19/08:00pm 15.1 12.2 9.7 70 2.8 S 15 15 8 8 1017.6 1017.5 0.0
19/07:30pm 16.2 13.2 9.4 64 3.5 S 15 17 8 9 1017.3 1017.2 0.0
19/07:00pm 16.7 13.8 8.1 57 4.4 SSE 13 13 7 7 1017.2 1017.1 0.0
19/06:30pm 18.8 15.1 7.9 49 5.6 S 17 20 9 11 1016.9 1016.8 0.0
19/06:00pm 20.3 15.8 7.0 42 6.8 S 20 26 11 14 1016.6 1016.5 0.0
19/05:30pm 20.9 15.0 5.7 37 7.6 SSW 26 35 14 19 1016.4 1016.3 0.0
19/05:00pm 21.8 15.4 5.3 34 8.2 SSW 28 35 15 19 1016.2 1016.1 0.0
19/04:30pm 22.2 15.9 5.6 34 8.3 SSW 28 39 15 21 1016.0 1015.9 0.0
19/04:00pm 22.4 16.4 5.4 33 8.5 SSW 26 35 14 19 1016.0 1015.9 0.0
19/03:58pm 22.4 16.4 5.4 33 8.5 SSW 26 35 14 19 1016.0 1015.9 0.0
19/03:46pm 22.8 16.8 5.3 32 8.8 SW 26 35 14 19 1016.0 1015.9 0.0
19/03:30pm 22.8 17.2 5.3 32 8.8 SSW 24 35 13 19 1016.0 1015.9 0.0
19/03:00pm 23.2 17.6 5.6 32 8.9 SW 24 33 13 18 1016.0 1015.9 0.0
19/02:30pm 22.8 18.9 5.3 32 8.8 WSW 15 20 8 11 1016.3 1016.2 0.0
19/02:00pm 23.2 19.4 5.6 32 8.9 W 15 26 8 14 1016.7 1016.6 0.0
19/01:30pm 22.3 18.0 5.3 33 8.5 W 17 28 9 15 1017.3 1017.2 0.0
19/01:00pm 22.4 18.6 5.8 34 8.4 W 15 30 8 16 1018.0 1017.9 0.0
19/12:30pm 21.6 17.1 5.9 36 7.9 W 19 32 10 17 1018.6 1018.5 0.0
19/12:00pm 21.3 17.2 6.0 37 7.7 WNW 17 26 9 14 1019.1 1019.0 0.0
19/11:30am 21.1 17.5 6.6 39 7.3 NNW 15 22 8 12 1019.6 1019.5 0.0
19/11:00am 21.6 18.4 8.5 43 6.9 N 15 22 8 12 1019.7 1019.6 0.0
19/10:30am 20.2 16.9 9.5 50 5.7 N 17 22 9 12 1020.0 1019.9 0.0
19/10:00am 18.9 15.2 10.2 57 4.7 N 20 26 11 14 1020.3 1020.2 0.0
19/09:30am 17.1 13.8 11.6 70 3.0 NNE 20 24 11 13 1020.5 1020.4 0.0
19/09:00am 14.9 12.2 13.4 91 0.8 NNE 20 26 11 14 1020.6 1020.5 0.0
19/08:30am 12.5 10.1 12.5 100 0.0 NNE 17 22 9 12 1020.5 1020.4 0.0
19/08:00am 9.2 - - - - N 15 19 8 10 1020.5 1020.4 0.0
19/07:30am 6.6 3.0 6.6 100 0.0 N 15 17 8 9 1020.5 1020.4 0.0
19/07:00am 6.0 2.2 6.0 100 0.0 N 15 17 8 9 1020.5 1020.4 0.0
19/06:30am 6.5 2.8 6.5 100 0.0 N 15 17 8 9 1020.5 1020.4 0.0
19/06:00am 6.7 3.1 6.7 100 0.0 N 15 17 8 9 1020.5 1020.4 0.0
19/05:30am 6.8 2.8 6.8 100 0.0 N 17 17 9 9 1020.7 1020.6 0.0
19/05:00am 7.0 3.5 7.0 100 0.0 N 15 17 8 9 1020.7 1020.6 0.0
19/04:30am 7.8 4.4 7.8 100 0.0 N 15 17 8 9 1020.9 1020.8 0.0
19/04:27am 7.9 4.9 7.9 100 0.0 N 13 17 7 9 1020.9 1020.8 0.0
19/04:00am 8.2 4.6 8.2 100 0.0 NNE 17 19 9 10 1021.0 1020.9 0.0
19/03:31am 7.4 4.3 7.4 100 0.0 N 13 15 7 8 1021.3 1021.2 0.0
19/03:30am 7.5 4.5 7.5 100 0.0 N 13 15 7 8 1021.3 1021.2 0.0
19/03:00am 8.1 5.2 8.1 100 0.0 N 13 17 7 9 1021.8 1021.7 0.0
19/02:30am 8.5 4.9 8.5 100 0.0 NNE 17 19 9 10 1022.0 1021.9 0.0
19/02:00am 8.2 4.9 8.2 100 0.0 NNE 15 17 8 9 1022.4 1022.3 0.0
19/01:30am 8.6 6.2 8.5 99 0.0 NNE 11 13 6 7 1022.6 1022.5 0.0
19/01:00am 9.1 7.2 9.0 99 0.0 N 9 11 5 6 1022.8 1022.7 0.0
19/12:30am 8.7 6.3 8.6 99 0.0 NNE 11 13 6 7 1023.1 1022.9 0.0
19/12:00am 8.8 5.9 8.2 96 0.3 NE 13 15 7 8 1023.2 1023.0 0.0
 
Date/Time
CST
Temp
°C
App
Temp
°C
Dew
Point
°C
Rel
Hum
%
Delta-T
°C
Wind Press
QNH
hPa
Press
MSL
hPa
Rain since
9am
mm
Dir  Spd
km/h
Gust
km/h
Spd
kts
Gust
kts
18/11:30pm 9.0 6.4 7.8 92 0.6 ENE 11 13 6 7 1023.3 1023.1 0.0
18/11:00pm 10.4 7.7 8.8 90 0.8 E 13 15 7 8 1023.6 1023.4 0.0
18/10:30pm 11.2 7.7 8.9 86 1.1 ESE 17 17 9 9 1023.9 1023.7 0.0
18/10:00pm 11.5 8.0 8.9 84 1.3 ESE 17 19 9 10 1024.1 1023.9 0.0
18/09:30pm 12.2 8.9 9.6 84 1.3 ESE 17 19 9 10 1024.2 1024.0 0.0
18/09:00pm 12.5 9.9 9.3 81 1.6 SE 13 15 7 8 1024.2 1024.0 0.0
18/08:30pm 12.9 10.6 9.0 77 2.0 SE 11 13 6 7 1024.2 1024.0 0.0
18/08:00pm 13.4 11.1 9.1 75 2.2 SSE 11 13 6 7 1024.3 1024.1 0.0
18/07:30pm 14.1 11.1 9.3 73 2.4 SSE 15 17 8 9 1024.4 1024.2 0.0
18/07:00pm 15.4 13.0 10.0 70 2.8 SSE 13 17 7 9 1024.5 1024.3 0.0
18/06:30pm 16.7 13.6 10.3 66 3.4 SSE 17 22 9 12 1024.3 1024.1 0.0
18/06:00pm 17.7 13.3 10.3 62 3.9 SSE 24 32 13 17 1024.4 1024.2 0.0
18/05:30pm 18.4 13.8 9.7 57 4.6 SSE 24 32 13 17 1024.4 1024.2 0.0
18/05:00pm 18.8 13.3 9.3 54 5.0 SSE 28 35 15 19 1024.4 1024.2 0.0
18/04:30pm 19.6 15.1 10.0 54 5.1 SSE 24 33 13 18 1024.3 1024.1 0.0
18/04:00pm 19.4 14.2 10.1 55 5.0 SSE 28 35 15 19 1024.3 1024.1 0.0
18/03:30pm 19.6 14.8 10.3 55 5.0 S 26 35 14 19 1024.5 1024.3 0.0
18/03:00pm 20.9 16.5 10.4 51 5.7 SSE 24 33 13 18 1024.8 1024.6 0.0
18/02:30pm 20.1 15.4 9.4 50 5.7 S 24 33 13 18 1024.8 1024.6 0.0
18/02:00pm 20.9 17.2 9.5 48 6.1 SE 19 32 10 17 1025.1 1024.9 0.0
18/01:30pm 20.3 17.2 8.9 48 6.0 SE 15 20 8 11 1025.6 1025.4 0.0
18/01:00pm 21.3 18.9 8.6 44 6.7 ESE 11 17 6 9 1026.1 1025.9 0.0
18/12:30pm 20.4 18.3 8.1 45 6.4 SE 9 13 5 7 1026.7 1026.5 0.0
18/12:00pm 20.0 18.0 8.7 48 5.9 NNW 9 17 5 9 1027.2 1027.0 0.0
18/11:30am 19.4 17.8 8.7 50 5.6 NNW 7 11 4 6 1027.6 1027.4 0.0
18/11:00am 19.5 17.7 9.4 52 5.4 NNE 9 15 5 8 1027.9 1027.8 0.0
18/10:30am 18.9 16.2 9.1 53 5.1 NNE 13 20 7 11 1028.3 1028.2 0.0
18/10:00am 17.8 15.5 11.8 68 3.3 NE 15 20 8 11 1028.5 1028.4 0.0
18/09:30am 16.9 14.7 13.2 79 2.1 NNE 17 22 9 12 1028.6 1028.5 0.0
18/09:00am 15.5 14.5 15.5 100 0.0 NNE 15 17 8 9 1028.5 1028.4 0.0
18/08:30am 12.7 - - - - N 13 17 7 9 1028.4 1028.3 0.0
18/08:00am 9.6 - - - - N 15 17 8 9 1028.1 1028.0 0.0
18/07:46am 8.2 5.6 7.9 98 0.1 N 11 15 6 8 1028.1 1028.0 0.0
18/07:30am 7.1 4.0 7.1 100 0.0 NNE 13 15 7 8 1028.1 1028.0 0.0
18/07:00am 6.7 3.5 6.7 100 0.0 NNE 13 15 7 8 1027.9 1027.8 0.0
18/06:30am 7.1 4.3 7.1 100 0.0 NNE 11 13 6 7 1027.7 1027.6 0.0
18/06:06am 8.1 6.0 8.1 100 0.0 NNE 9 11 5 6 1027.7 1027.6 0.0
18/06:00am 7.6 5.3 7.6 100 0.0 NNE 9 9 5 5 1027.7 1027.6 0.0
18/05:30am 6.9 3.7 6.9 100 0.0 NNE 13 15 7 8 1027.5 1027.3 0.0
18/05:00am 7.6 3.8 7.6 100 0.0 NNE 17 17 9 9 1027.3 1027.1 0.0
18/04:47am 7.8 4.8 7.8 100 0.0 NNE 13 15 7 8 1027.4 1027.2 0.0
18/04:30am 7.8 4.4 7.8 100 0.0 NNE 15 19 8 10 1027.5 1027.3 0.0
18/04:00am 7.1 3.2 7.1 100 0.0 NE 17 19 9 10 1027.4 1027.2 0.0
18/03:46am 7.4 3.9 7.4 100 0.0 NNE 15 17 8 9 1027.6 1027.4 0.0
18/03:30am 7.8 4.4 7.8 100 0.0 NNE 15 17 8 9 1027.9 1027.8 0.0
18/03:00am 8.3 5.4 8.2 99 0.0 NNE 13 15 7 8 1028.0 1027.9 0.0
18/02:30am 8.7 5.9 8.6 99 0.0 NNE 13 15 7 8 1028.2 1028.1 0.0
18/02:00am 8.5 6.5 7.1 91 0.7 E 7 13 4 7 1028.3 1028.2 0.0
18/01:30am 11.3 8.6 10.2 93 0.6 ESE 15 17 8 9 1028.2 1028.1 0.0
18/01:00am 11.5 8.4 10.4 93 0.6 SE 17 17 9 9 1028.4 1028.3 0.0
18/12:30am 11.2 9.2 10.0 92 0.6 SE 11 13 6 7 1028.7 1028.6 0.0
18/12:00am 11.9 10.1 11.0 94 0.5 ESE 11 15 6 8 1029.1 1029.0 0.0
 
Date/Time
CST
Temp
°C
App
Temp
°C
Dew
Point
°C
Rel
Hum
%
Delta-T
°C
Wind Press
QNH
hPa
Press
MSL
hPa
Rain since
9am
mm
Dir  Spd
km/h
Gust
km/h
Spd
kts
Gust
kts
17/11:30pm 11.5 9.5 10.2 92 0.7 SE 11 11 6 6 1029.3 1029.2 0.0
17/11:00pm 12.6 11.0 11.5 93 0.6 SE 11 13 6 7 1029.6 1029.5 0.0
17/10:30pm 12.9 11.7 11.6 92 0.7 SE 9 13 5 7 1029.7 1029.6 0.0
17/10:00pm 12.6 11.3 11.2 91 0.7 SE 9 11 5 6 1029.7 1029.6 0.0
17/09:30pm 12.9 10.9 11.5 91 0.7 SE 13 15 7 8 1029.5 1029.4 0.0
17/09:00pm 13.1 10.7 11.5 90 0.8 SE 15 17 8 9 1029.4 1029.3 0.0
17/08:30pm 13.7 11.7 11.6 87 1.1 SE 13 15 7 8 1029.5 1029.4 0.0
17/08:00pm 13.7 11.4 10.5 81 1.7 SE 13 15 7 8 1029.5 1029.4 0.0
17/07:30pm 14.9 12.8 11.1 78 2.0 SE 13 15 7 8 1029.2 1029.1 0.0
17/07:00pm 16.0 13.7 11.6 75 2.4 SE 15 17 8 9 1029.1 1029.0 0.0
17/06:30pm 17.1 14.1 12.0 72 2.8 SSE 19 22 10 12 1029.1 1029.0 0.0
17/06:00pm 18.0 14.1 12.0 68 3.3 SSE 24 30 13 16 1028.8 1028.7 0.0
17/05:30pm 18.9 14.7 11.2 61 4.2 SSE 24 32 13 17 1028.6 1028.5 0.0

Other formats

Comma delimited format used in spreadsheet applications
http://www.bom.gov.au/fwo/IDS60801/IDS60801.94651.axf

JavaScript Object Notation format (JSON) in row-major order
http://www.bom.gov.au/fwo/IDS60801/IDS60801.94651.json

Data quality

Most of these data are generated automatically and are frequently updated. Quality checks on data are not normally performed. It is possible for incorrect values to appear. Refer to information at About Latest Weather Observations and please check the disclaimer before using these data.